createdAt,value
2019-05-10T00:02:58.720Z,0.67
2019-05-10T00:08:21.185Z,0.60
2019-05-10T00:13:27.708Z,0.53
2019-05-10T00:18:34.997Z,0.70
2019-05-10T00:23:39.723Z,0.77
2019-05-10T00:28:44.762Z,0.60
2019-05-10T00:33:50.025Z,0.80
2019-05-10T00:38:54.520Z,0.90
2019-05-10T00:43:59.364Z,0.90
2019-05-10T00:49:04.029Z,1.20
2019-05-10T00:54:08.512Z,0.87
2019-05-10T00:59:13.223Z,0.90
2019-05-10T01:04:18.066Z,0.93
2019-05-10T01:09:23.987Z,1.10
2019-05-10T01:14:28.610Z,1.20
2019-05-10T01:19:34.002Z,1.00
2019-05-10T01:24:38.631Z,1.10
2019-05-10T01:29:43.364Z,0.90
2019-05-10T01:34:49.624Z,0.80
2019-05-10T01:39:54.011Z,1.10
2019-05-10T01:44:59.456Z,1.23
2019-05-10T01:50:04.927Z,1.30
2019-05-10T01:55:09.918Z,1.00
2019-05-10T02:00:14.823Z,1.00
2019-05-10T02:05:19.276Z,0.80
2019-05-10T02:10:24.078Z,0.93
2019-05-10T02:15:29.035Z,0.90
2019-05-10T02:20:33.769Z,1.13
2019-05-10T02:25:39.756Z,0.87
2019-05-10T02:30:44.364Z,0.70
2019-05-10T02:35:49.152Z,0.77
2019-05-10T02:40:54.102Z,0.70
2019-05-10T02:45:58.878Z,0.60
2019-05-10T02:51:03.809Z,0.60
2019-05-10T02:56:27.831Z,0.63
2019-05-10T03:01:16.128Z,0.50
2019-05-10T03:06:22.401Z,0.80
2019-05-10T03:11:29.850Z,0.80
2019-05-10T03:16:37.693Z,0.80
2019-05-10T03:21:44.406Z,1.20
2019-05-10T03:26:51.320Z,1.00
2019-05-10T03:31:55.640Z,1.30
2019-05-10T03:37:01.649Z,1.40
2019-05-10T03:42:06.448Z,1.10
2019-05-10T03:47:11.100Z,1.40
2019-05-10T03:52:15.823Z,1.53
2019-05-10T03:57:20.258Z,1.43
2019-05-10T04:02:24.709Z,1.30
2019-05-10T04:07:30.245Z,1.27
2019-05-10T04:12:34.766Z,1.20
2019-05-10T04:17:39.788Z,1.07
2019-05-10T04:22:44.662Z,1.50
2019-05-10T04:27:49.224Z,1.10
2019-05-10T04:32:54.188Z,1.57
2019-05-10T04:37:59.242Z,1.37
2019-05-10T04:43:03.810Z,1.50
2019-05-10T04:48:08.236Z,1.20
2019-05-10T04:53:13.546Z,1.80
2019-05-10T04:58:17.901Z,1.30
2019-05-10T05:03:22.425Z,1.20
2019-05-10T05:08:26.851Z,1.20
2019-05-10T05:13:32.527Z,1.47
2019-05-10T05:18:37.241Z,1.40
2019-05-10T05:23:42.060Z,1.20
2019-05-10T05:28:46.936Z,1.20
2019-05-10T05:33:51.915Z,1.20
2019-05-10T05:38:56.755Z,1.00
2019-05-10T05:44:01.325Z,0.90
2019-05-10T05:49:06.728Z,1.30
2019-05-10T05:54:15.238Z,1.50
2019-05-10T05:59:23.735Z,1.00
2019-05-10T06:04:23.606Z,1.13
2019-05-10T06:09:32.076Z,0.90
2019-05-10T06:14:34.475Z,1.20
2019-05-10T06:19:39.143Z,1.40
2019-05-10T06:24:46.658Z,1.15
2019-05-10T06:29:49.923Z,0.90
2019-05-10T06:34:54.477Z,1.00
2019-05-10T06:39:59.533Z,1.00
2019-05-10T06:45:13.835Z,1.30
2019-05-10T06:50:11.445Z,1.20
2019-05-10T06:55:16.281Z,1.42
2019-05-10T07:00:21.321Z,1.00
2019-05-10T07:05:25.706Z,1.10
2019-05-10T07:10:33.716Z,1.03
2019-05-10T07:15:42.151Z,1.20
2019-05-10T07:20:43.443Z,1.00
2019-05-10T07:25:49.779Z,0.80
2019-05-10T07:30:54.663Z,0.70
2019-05-10T07:35:59.583Z,0.80
2019-05-10T07:41:04.107Z,0.80
2019-05-10T07:46:09.076Z,0.42
2019-05-10T07:51:13.754Z,0.73
2019-05-10T07:56:18.528Z,1.07
2019-05-10T08:01:32.121Z,0.80
2019-05-10T08:06:31.989Z,0.70
2019-05-10T08:11:35.495Z,1.00
2019-05-10T08:16:40.243Z,0.80
2019-05-10T08:21:48.707Z,0.90
2019-05-10T08:26:57.149Z,1.05
2019-05-10T08:31:57.849Z,0.80
2019-05-10T08:37:02.555Z,0.55
2019-05-10T08:42:27.649Z,0.80
2019-05-10T08:47:22.432Z,0.40
2019-05-10T08:52:23.898Z,0.70
2019-05-10T09:02:47.316Z,0.55
2019-05-10T09:07:52.218Z,0.70
2019-05-10T09:12:58.206Z,1.15
2019-05-10T09:18:07.373Z,0.75
2019-05-10T09:23:15.394Z,0.77
2019-05-10T09:28:17.110Z,0.95
2019-05-10T09:33:22.540Z,0.62
2019-05-10T09:38:28.549Z,0.70
2019-05-10T09:43:33.887Z,0.62
2019-05-10T09:48:38.737Z,1.05
2019-05-10T09:53:43.661Z,0.70
2019-05-10T09:58:48.650Z,0.60
2019-05-10T10:03:53.628Z,0.90
2019-05-10T10:09:00.892Z,0.85
2019-05-10T10:14:07.530Z,0.66
2019-05-10T10:19:11.667Z,0.83
2019-05-10T10:24:20.035Z,0.87
2019-05-10T10:29:22.530Z,0.93
2019-05-10T10:34:27.604Z,0.80
2019-05-10T10:39:32.063Z,0.90
2019-05-10T10:44:37.152Z,0.90
2019-05-10T10:49:41.750Z,1.10
2019-05-10T10:54:47.975Z,0.93
2019-05-10T10:59:52.987Z,0.70
2019-05-10T11:04:57.863Z,0.90
2019-05-10T11:10:14.762Z,0.80
2019-05-10T11:15:11.227Z,0.90
2019-05-10T11:20:15.218Z,0.90
2019-05-10T11:25:21.274Z,0.65
2019-05-10T11:30:25.673Z,0.60
2019-05-10T11:35:33.823Z,0.60
2019-05-10T11:40:37.314Z,0.60
2019-05-10T11:45:44.212Z,0.47
2019-05-10T11:50:51.387Z,0.70
2019-05-10T11:55:55.849Z,0.50
2019-05-10T12:01:12.927Z,0.70
2019-05-10T12:06:09.108Z,0.50
2019-05-10T12:11:27.583Z,0.70
2019-05-10T12:16:21.440Z,0.53
2019-05-10T12:21:25.551Z,0.60
2019-05-10T12:31:36.659Z,0.50
2019-05-10T12:36:41.212Z,0.40
2019-05-10T12:41:49.816Z,0.43
2019-05-10T12:46:54.301Z,0.80
2019-05-10T12:51:59.539Z,0.60
2019-05-10T12:57:04.771Z,0.47
2019-05-10T13:02:11.038Z,0.30
2019-05-10T13:07:15.398Z,0.30
2019-05-10T13:12:19.724Z,0.40
2019-05-10T13:17:24.078Z,0.40
2019-05-10T13:22:36.830Z,0.30
2019-05-10T13:27:34.812Z,0.30
2019-05-10T13:32:39.310Z,0.30
2019-05-10T13:37:44.676Z,0.50
2019-05-10T13:42:49.138Z,0.50
2019-05-10T13:47:53.984Z,0.60
2019-05-10T13:52:58.858Z,0.50
2019-05-10T13:58:03.357Z,0.47
2019-05-10T14:03:11.376Z,0.60
2019-05-10T14:08:14.427Z,0.78
2019-05-10T14:13:19.321Z,0.60
2019-05-10T14:18:24.086Z,0.64
2019-05-10T14:23:34.528Z,0.40
2019-05-10T14:28:34.884Z,0.40
2019-05-10T14:33:39.650Z,0.60
2019-05-10T14:38:47.242Z,0.50
2019-05-10T14:43:50.762Z,0.47
2019-05-10T14:49:08.877Z,0.60
2019-05-10T14:54:08.960Z,0.70
2019-05-10T14:59:14.408Z,0.55
2019-05-10T15:04:43.942Z,0.40
2019-05-10T15:09:27.345Z,0.50
2019-05-10T15:14:32.331Z,0.75
2019-05-10T15:19:38.123Z,0.30
2019-05-10T15:24:42.697Z,0.30
2019-05-10T15:29:47.270Z,0.50
2019-05-10T15:35:05.438Z,0.40
2019-05-10T15:40:00.616Z,0.30
2019-05-10T15:45:12.358Z,0.40
2019-05-10T15:50:12.493Z,0.70
2019-05-10T15:55:26.760Z,0.50
2019-05-10T16:00:37.735Z,0.53
2019-05-10T16:05:42.952Z,0.50
2019-05-10T16:10:40.992Z,0.42
2019-05-10T16:15:46.042Z,0.60
2019-05-10T16:20:50.929Z,0.40
2019-05-10T16:25:56.049Z,0.40
2019-05-10T16:31:01.608Z,0.83
2019-05-10T16:36:08.319Z,0.50
2019-05-10T16:41:12.921Z,0.50
2019-05-10T16:46:17.846Z,0.60
2019-05-10T16:51:22.420Z,0.88
2019-05-10T16:56:27.231Z,0.45
2019-05-10T17:01:33.784Z,0.57
2019-05-10T17:06:40.543Z,0.50
2019-05-10T17:11:46.795Z,0.60
2019-05-10T17:16:58.652Z,0.50
2019-05-10T17:21:57.668Z,0.60
2019-05-10T17:27:02.992Z,0.60
2019-05-10T17:32:07.845Z,0.73
2019-05-10T17:37:13.883Z,0.70
2019-05-10T17:42:18.595Z,0.70
2019-05-10T17:47:27.185Z,0.62
2019-05-10T17:52:30.368Z,1.30
2019-05-10T17:57:35.836Z,0.67
2019-05-10T18:02:40.266Z,0.70
2019-05-10T18:07:45.800Z,0.80
2019-05-10T18:12:50.552Z,0.77
2019-05-10T18:17:57.588Z,0.50
2019-05-10T18:23:01.665Z,0.87
2019-05-10T18:28:06.417Z,0.80
2019-05-10T18:33:14.032Z,0.90
2019-05-10T18:38:18.120Z,0.80
2019-05-10T18:43:22.933Z,0.80
2019-05-10T18:48:27.807Z,0.80
2019-05-10T18:53:32.692Z,0.90
2019-05-10T18:58:37.663Z,0.80
2019-05-10T19:03:42.605Z,1.03
2019-05-10T19:08:47.567Z,0.83
2019-05-10T19:13:54.131Z,0.90
2019-05-10T19:19:01.804Z,0.97
2019-05-10T19:24:05.325Z,0.77
2019-05-10T19:29:09.901Z,0.93
2019-05-10T19:34:15.826Z,1.53
2019-05-10T19:39:21.783Z,1.87
2019-05-10T19:44:26.435Z,2.27
2019-05-10T19:49:31.970Z,1.83
2019-05-10T19:54:36.866Z,2.30
2019-05-10T19:59:44.156Z,1.70
2019-05-10T20:04:48.231Z,1.60
2019-05-10T20:09:53.407Z,3.20
2019-05-10T20:14:58.712Z,2.27
2019-05-10T20:20:03.465Z,2.17
2019-05-10T20:25:08.805Z,3.13
2019-05-10T20:30:13.725Z,2.67
2019-05-10T20:35:18.641Z,3.00
2019-05-10T20:40:23.519Z,2.43
2019-05-10T20:45:28.011Z,2.10
2019-05-10T20:50:32.646Z,2.53
2019-05-10T20:55:38.310Z,2.23
2019-05-10T21:00:43.668Z,1.80
2019-05-10T21:05:48.189Z,1.70
2019-05-10T21:10:53.159Z,1.93
2019-05-10T21:15:58.224Z,2.13
2019-05-10T21:21:02.803Z,2.47
2019-05-10T21:26:07.377Z,2.00
2019-05-10T21:31:12.298Z,2.10
2019-05-10T21:36:17.124Z,2.57
2019-05-10T21:41:21.896Z,3.47
2019-05-10T21:46:26.700Z,3.43
2019-05-10T21:51:31.296Z,2.87
2019-05-10T21:56:37.051Z,1.90
2019-05-10T22:01:43.236Z,2.27
2019-05-10T22:06:47.699Z,2.17
2019-05-10T22:11:52.254Z,1.80
2019-05-10T22:16:56.760Z,1.70
2019-05-10T22:22:02.026Z,1.43
2019-05-10T22:27:06.998Z,1.40
2019-05-10T22:32:12.243Z,1.37
2019-05-10T22:37:17.089Z,2.40
2019-05-10T22:42:24.241Z,2.30
2019-05-10T22:47:28.331Z,2.50
2019-05-10T22:52:33.026Z,2.20
2019-05-10T22:57:37.525Z,1.93
2019-05-10T23:02:41.967Z,2.03
2019-05-10T23:07:46.963Z,2.60
2019-05-10T23:12:51.589Z,2.30
2019-05-10T23:17:56.391Z,2.23
2019-05-10T23:23:02.391Z,4.60
2019-05-10T23:28:07.146Z,3.73
2019-05-10T23:33:11.676Z,3.47
2019-05-10T23:38:16.921Z,3.67
2019-05-10T23:43:21.880Z,3.73
2019-05-10T23:48:27.027Z,3.30
2019-05-10T23:53:32.244Z,2.80
2019-05-10T23:58:36.973Z,2.20
